メインページ
METAR-TAF:

METAR-TAF

空港 :

Holland, ミシガン州, アメリカ合衆国

緯度: 42-44-46N, 経度: 086-05-48W, 海抜: 209m

現時点の気象観測

当レポートは1時間1分前の16:53(UTC)に作成
の風 9kt、最大16ktの突風を伴う
気温 31°C
湿度 43%
気圧 1017 hPa
視程: 16.1km
高度6000ftの雲はほとんどない

METAR: KBIV 261653Z AUTO 18009G16KT 10SM FEW060 31/17 A3002 RMK AO2 SLP161 T03110172

時間: 13:54 (17:54 UTC)


TAF: 見つかりません

4,000以上の空港の気象観測と天気予報(METAR報とTAF報)

利用可能な観測所は地図上に黄色い丸と赤い丸で示す。

丸の上にカーソルを重ねると観測所名を参照できる。

次にクリックすると気象観測と天気予報を参照できる。

マップの切り替え:黒色「×」印の緑ボタンをクリックして拡大、「-」印の緑ボタンをクリックして縮小、緑色の三角印をクリックして隣りの地図に切り替え


METAR-TAF: